createdAt,value
2023-02-11T00:00:41.562Z,24.00
2023-02-11T00:03:46.337Z,24.08
2023-02-11T00:06:51.108Z,22.33
2023-02-11T00:09:55.911Z,21.42
2023-02-11T00:13:00.561Z,23.08
2023-02-11T00:16:10.635Z,24.80
2023-02-11T00:19:15.407Z,22.63
2023-02-11T00:22:20.526Z,23.05
2023-02-11T00:25:25.735Z,23.90
2023-02-11T00:28:30.423Z,22.50
2023-02-11T00:31:35.724Z,23.25
2023-02-11T00:34:43.129Z,22.13
2023-02-11T00:37:47.850Z,22.00
2023-02-11T00:40:52.659Z,23.80
2023-02-11T00:43:57.530Z,21.02
2023-02-11T00:47:02.186Z,23.50
2023-02-11T00:50:07.586Z,22.52
2023-02-11T00:53:12.472Z,23.58
2023-02-11T00:56:17.915Z,22.55
2023-02-11T00:59:22.800Z,23.17
2023-02-11T01:02:27.410Z,23.08
2023-02-11T01:05:32.219Z,24.02
2023-02-11T01:08:37.323Z,21.70
2023-02-11T01:11:41.826Z,19.42
2023-02-11T01:14:46.672Z,23.40
2023-02-11T01:17:51.606Z,21.55
2023-02-11T01:20:58.010Z,22.88
2023-02-11T01:24:02.713Z,21.67
2023-02-11T01:27:07.570Z,24.35
2023-02-11T01:30:13.894Z,21.35
2023-02-11T01:33:19.058Z,21.77
2023-02-11T01:36:23.957Z,21.77
2023-02-11T01:39:28.613Z,22.27
2023-02-11T01:42:33.866Z,21.27
2023-02-11T01:45:44.800Z,21.40
2023-02-11T01:49:06.279Z,23.63
2023-02-11T01:52:19.055Z,22.85
2023-02-11T01:55:42.175Z,22.88
2023-02-11T01:58:48.773Z,21.80
2023-02-11T02:01:58.736Z,23.27
2023-02-11T02:05:36.890Z,23.92
2023-02-11T02:08:51.246Z,21.25
2023-02-11T02:11:56.029Z,25.05
2023-02-11T02:15:22.007Z,21.55
2023-02-11T02:18:38.995Z,23.48
2023-02-11T02:22:17.618Z,20.13
2023-02-11T02:25:48.164Z,23.65
2023-02-11T02:29:06.917Z,22.42
2023-02-11T02:32:43.559Z,23.05
2023-02-11T02:35:58.324Z,23.45
2023-02-11T02:39:12.015Z,21.67
2023-02-11T02:42:18.375Z,23.08
2023-02-11T02:45:23.003Z,23.48
2023-02-11T02:48:30.952Z,23.35
2023-02-11T02:51:38.423Z,25.63
2023-02-11T02:55:11.481Z,26.13
2023-02-11T02:58:47.023Z,24.55
2023-02-11T03:02:03.962Z,26.73
2023-02-11T03:05:16.170Z,24.67
2023-02-11T03:08:41.120Z,23.17
2023-02-11T03:11:45.978Z,25.20
2023-02-11T03:14:52.386Z,22.80
2023-02-11T03:18:02.120Z,24.52
2023-02-11T03:21:08.479Z,22.50
2023-02-11T03:24:20.117Z,24.85
2023-02-11T03:27:32.934Z,21.98
2023-02-11T03:33:59.616Z,24.95
2023-02-11T03:37:18.345Z,24.63
2023-02-11T03:40:26.922Z,21.70
2023-02-11T03:43:35.598Z,22.85
2023-02-11T03:46:44.878Z,22.25
2023-02-11T03:49:53.093Z,20.67
2023-02-11T03:53:00.560Z,22.85
2023-02-11T03:56:09.037Z,23.92
2023-02-11T03:59:13.710Z,23.83
2023-02-11T04:02:19.088Z,22.42
2023-02-11T04:05:23.976Z,22.55
2023-02-11T04:08:28.606Z,21.60
2023-02-11T04:11:33.213Z,24.10
2023-02-11T04:14:38.084Z,22.45
2023-02-11T04:17:43.030Z,21.27
2023-02-11T04:20:48.156Z,21.92
2023-02-11T04:23:52.794Z,22.25
2023-02-11T04:26:57.594Z,23.05
2023-02-11T04:30:02.589Z,22.25
2023-02-11T04:33:07.318Z,22.88
2023-02-11T04:36:12.873Z,21.95
2023-02-11T04:39:17.949Z,24.83
2023-02-11T04:42:24.023Z,24.02
2023-02-11T04:45:28.701Z,24.23
2023-02-11T04:48:34.913Z,26.30
2023-02-11T04:51:39.719Z,23.88
2023-02-11T04:54:44.470Z,26.27
2023-02-11T04:57:49.211Z,24.58
2023-02-11T05:00:54.074Z,24.10
2023-02-11T05:03:58.790Z,23.33
2023-02-11T05:07:03.601Z,23.95
2023-02-11T05:10:08.450Z,22.77
2023-02-11T05:13:13.176Z,24.70
2023-02-11T05:16:18.569Z,21.48
2023-02-11T05:19:23.415Z,23.95
2023-02-11T05:22:28.032Z,22.83
2023-02-11T05:25:33.148Z,21.90
2023-02-11T05:28:38.133Z,21.02
2023-02-11T05:31:42.804Z,18.75
2023-02-11T05:34:47.439Z,22.33
2023-02-11T05:37:52.149Z,21.75
2023-02-11T05:40:57.105Z,21.73
2023-02-11T05:44:01.842Z,21.80
2023-02-11T05:47:08.932Z,22.40
2023-02-11T05:50:13.418Z,22.17
2023-02-11T05:53:21.571Z,23.95
2023-02-11T05:56:49.165Z,23.00
2023-02-11T05:59:53.769Z,23.13
2023-02-11T06:02:58.427Z,25.33
2023-02-11T06:06:03.262Z,23.65
2023-02-11T06:09:09.033Z,23.27
2023-02-11T06:12:13.772Z,21.77
2023-02-11T06:15:18.463Z,22.35
2023-02-11T06:18:23.329Z,21.98
2023-02-11T06:21:42.436Z,24.17
2023-02-11T06:25:00.967Z,22.42
2023-02-11T06:28:06.805Z,24.52
2023-02-11T06:31:11.908Z,21.23
2023-02-11T06:34:16.766Z,23.67
2023-02-11T06:37:22.240Z,24.20
2023-02-11T06:40:27.298Z,23.45
2023-02-11T06:43:33.516Z,23.55
2023-02-11T06:46:41.282Z,23.55
2023-02-11T06:49:45.978Z,23.52
2023-02-11T06:52:50.547Z,18.42
2023-02-11T06:55:55.186Z,20.98
2023-02-11T06:59:00.423Z,19.63
2023-02-11T07:02:05.060Z,18.77
2023-02-11T07:05:09.947Z,21.77
2023-02-11T07:08:14.615Z,23.52
2023-02-11T07:11:24.217Z,19.17
2023-02-11T07:14:28.899Z,21.88
2023-02-11T07:17:34.930Z,22.13
2023-02-11T07:20:39.437Z,23.88
2023-02-11T07:23:43.971Z,25.02
2023-02-11T07:26:48.827Z,24.50
2023-02-11T07:29:53.653Z,25.92
2023-02-11T07:32:58.198Z,23.50
2023-02-11T07:36:04.897Z,25.13
2023-02-11T07:39:09.538Z,25.15
2023-02-11T07:42:14.270Z,24.60
2023-02-11T07:45:19.364Z,24.33
2023-02-11T07:48:24.636Z,25.02
2023-02-11T07:51:30.857Z,24.05
2023-02-11T07:54:35.678Z,28.73
2023-02-11T07:57:41.232Z,25.42
2023-02-11T08:00:46.220Z,23.83
2023-02-11T08:03:52.197Z,22.17
2023-02-11T08:06:59.071Z,21.90
2023-02-11T08:10:04.076Z,24.20
2023-02-11T08:13:08.571Z,28.35
2023-02-11T08:16:28.258Z,28.48
2023-02-11T08:19:35.175Z,26.83
2023-02-11T08:22:39.879Z,23.30
2023-02-11T08:25:44.449Z,22.85
2023-02-11T08:28:50.728Z,21.90
2023-02-11T08:31:55.257Z,25.98
2023-02-11T08:34:59.810Z,26.73
2023-02-11T08:38:04.335Z,27.13
2023-02-11T08:41:09.098Z,26.10
2023-02-11T08:44:13.794Z,28.55
2023-02-11T08:47:18.350Z,27.27
2023-02-11T08:50:22.978Z,26.73
2023-02-11T08:53:27.502Z,24.65
2023-02-11T08:56:33.252Z,23.98
2023-02-11T08:59:39.997Z,29.20
2023-02-11T09:02:44.575Z,28.50
2023-02-11T09:05:53.223Z,30.83
2023-02-11T09:08:58.578Z,27.70
2023-02-11T09:12:03.258Z,30.33
2023-02-11T09:15:08.514Z,28.98
2023-02-11T09:18:13.431Z,28.67
2023-02-11T09:21:19.125Z,28.23
2023-02-11T09:24:23.696Z,27.25
2023-02-11T09:27:28.282Z,27.50
2023-02-11T09:30:33.376Z,29.02
2023-02-11T09:33:39.326Z,24.95
2023-02-11T09:36:44.008Z,28.55
2023-02-11T09:39:48.642Z,27.88
2023-02-11T09:43:14.322Z,31.42
2023-02-11T09:46:21.210Z,26.90
2023-02-11T09:49:35.066Z,29.25
2023-02-11T09:52:54.945Z,30.17
2023-02-11T09:56:02.263Z,28.73
2023-02-11T09:59:13.739Z,27.08
2023-02-11T10:02:29.870Z,25.77
2023-02-11T10:05:46.513Z,26.98
2023-02-11T10:08:54.290Z,28.33
2023-02-11T10:11:59.157Z,27.35
2023-02-11T10:15:15.623Z,28.20
2023-02-11T10:18:38.302Z,28.95
2023-02-11T10:22:00.214Z,24.70
2023-02-11T10:25:30.610Z,27.17
2023-02-11T10:28:37.052Z,27.60
2023-02-11T10:31:45.040Z,26.77
2023-02-11T10:34:50.597Z,27.80
2023-02-11T10:37:56.093Z,24.77
2023-02-11T10:41:00.833Z,25.70
2023-02-11T10:44:07.401Z,25.65
2023-02-11T10:47:21.132Z,25.27
2023-02-11T10:50:28.613Z,24.83
2023-02-11T10:53:34.955Z,25.30
2023-02-11T10:56:47.560Z,29.30
2023-02-11T10:59:58.294Z,26.80
2023-02-11T11:03:14.623Z,24.15
2023-02-11T11:06:31.615Z,26.58
2023-02-11T11:09:48.458Z,22.55
2023-02-11T11:12:53.093Z,24.98
2023-02-11T11:16:18.249Z,25.92
2023-02-11T11:19:26.020Z,23.30
2023-02-11T11:22:30.914Z,24.85
2023-02-11T11:25:39.534Z,25.52
2023-02-11T11:28:47.000Z,25.33
2023-02-11T11:31:56.840Z,24.40
2023-02-11T11:35:07.529Z,22.83
2023-02-11T11:38:14.865Z,24.48
2023-02-11T11:41:26.128Z,25.85
2023-02-11T11:44:33.725Z,22.92
2023-02-11T11:48:16.250Z,25.80
2023-02-11T11:51:21.610Z,25.60
2023-02-11T11:54:28.214Z,24.52
2023-02-11T11:57:37.274Z,24.40
2023-02-11T12:01:17.054Z,23.65
2023-02-11T12:04:30.169Z,23.15
2023-02-11T12:11:09.311Z,24.83
2023-02-11T12:14:22.805Z,24.35
2023-02-11T12:17:47.539Z,24.17
2023-02-11T12:21:01.025Z,23.48
2023-02-11T12:24:43.217Z,23.75
2023-02-11T12:27:54.998Z,23.13
2023-02-11T12:31:30.354Z,22.38
2023-02-11T12:34:35.586Z,21.33
2023-02-11T12:37:45.848Z,23.63
2023-02-11T12:40:56.423Z,19.42
2023-02-11T12:44:01.074Z,20.60
2023-02-11T12:47:27.091Z,20.08
2023-02-11T12:50:40.629Z,21.63
2023-02-11T12:54:19.571Z,22.90
2023-02-11T12:57:31.116Z,23.75
2023-02-11T13:00:51.818Z,23.58
2023-02-11T13:04:14.180Z,23.40
2023-02-11T13:07:28.761Z,20.75
2023-02-11T13:10:36.660Z,20.70
2023-02-11T13:14:05.978Z,23.95
2023-02-11T13:17:44.387Z,23.80
2023-02-11T13:21:02.522Z,25.48
2023-02-11T13:24:30.341Z,21.83
2023-02-11T13:27:44.206Z,22.13
2023-02-11T13:30:57.353Z,23.17
2023-02-11T13:34:03.814Z,24.15
2023-02-11T13:37:38.822Z,25.42
2023-02-11T13:40:44.320Z,24.50
2023-02-11T13:44:23.779Z,22.92
2023-02-11T13:47:33.835Z,22.73
2023-02-11T13:50:46.618Z,21.45
2023-02-11T13:53:57.142Z,23.60
2023-02-11T13:57:19.762Z,23.83
2023-02-11T14:00:36.516Z,24.00
2023-02-11T14:04:38.327Z,21.40
2023-02-11T14:08:30.583Z,21.27
2023-02-11T14:11:36.477Z,21.50
2023-02-11T14:15:04.812Z,22.27
2023-02-11T14:18:44.791Z,21.77
2023-02-11T14:21:50.039Z,22.48
2023-02-11T14:24:58.365Z,22.98
2023-02-11T14:28:24.105Z,26.08
2023-02-11T14:31:45.528Z,26.50
2023-02-11T14:34:55.945Z,22.73
2023-02-11T14:38:41.456Z,21.63
2023-02-11T14:41:48.782Z,20.30
2023-02-11T14:44:57.529Z,21.98
2023-02-11T14:48:13.442Z,22.27
2023-02-11T14:51:31.697Z,20.67
2023-02-11T14:54:36.538Z,20.52
2023-02-11T14:57:44.660Z,20.15
2023-02-11T15:01:01.283Z,17.27
2023-02-11T15:04:22.474Z,18.08
2023-02-11T15:07:27.868Z,18.90
2023-02-11T15:10:37.921Z,18.60
2023-02-11T15:13:50.549Z,20.00
2023-02-11T15:16:59.502Z,17.88
2023-02-11T15:20:05.560Z,18.83
2023-02-11T15:23:21.474Z,20.02
2023-02-11T15:26:26.941Z,20.90
2023-02-11T15:29:39.285Z,18.52
2023-02-11T15:32:45.586Z,17.80
2023-02-11T15:35:52.889Z,20.90
2023-02-11T15:39:18.450Z,20.00
2023-02-11T15:42:26.492Z,20.35
2023-02-11T15:45:34.727Z,18.95
2023-02-11T15:48:48.670Z,19.75
2023-02-11T15:51:57.090Z,20.13
2023-02-11T15:55:03.069Z,19.55
2023-02-11T15:58:10.803Z,18.08
2023-02-11T16:01:16.500Z,19.15
2023-02-11T16:04:25.077Z,19.13
2023-02-11T16:07:47.468Z,20.08
2023-02-11T16:11:03.681Z,21.08
2023-02-11T16:14:31.313Z,19.40
2023-02-11T16:17:35.960Z,19.02
2023-02-11T16:20:40.981Z,20.02
2023-02-11T16:23:58.124Z,19.33
2023-02-11T16:27:07.143Z,20.27
2023-02-11T16:30:28.146Z,20.42
2023-02-11T16:33:33.398Z,20.48
2023-02-11T16:36:38.517Z,21.25
2023-02-11T16:39:44.682Z,22.38
2023-02-11T16:42:49.840Z,22.23
2023-02-11T16:45:58.854Z,22.30
2023-02-11T16:49:10.746Z,23.40
2023-02-11T16:52:16.682Z,24.05
2023-02-11T16:55:22.301Z,22.05
2023-02-11T16:58:26.994Z,21.67
2023-02-11T17:01:32.537Z,23.73
2023-02-11T17:04:37.640Z,21.98
2023-02-11T17:07:42.311Z,24.02
2023-02-11T17:10:47.244Z,22.98
2023-02-11T17:13:51.952Z,22.65
2023-02-11T17:16:56.852Z,23.17
2023-02-11T17:20:01.662Z,22.13
2023-02-11T17:23:06.358Z,21.70
2023-02-11T17:26:10.926Z,23.80
2023-02-11T17:29:18.953Z,21.42
2023-02-11T17:32:23.532Z,22.90
2023-02-11T17:35:28.122Z,23.45
2023-02-11T17:38:33.446Z,19.88
2023-02-11T17:41:39.442Z,20.65
2023-02-11T17:44:44.438Z,21.45
2023-02-11T17:47:49.451Z,23.20
2023-02-11T17:50:54.029Z,22.83
2023-02-11T17:54:01.205Z,23.17
2023-02-11T17:57:06.024Z,22.65
2023-02-11T18:00:11.300Z,24.33
2023-02-11T18:03:18.473Z,22.75
2023-02-11T18:06:23.055Z,22.20
2023-02-11T18:09:27.880Z,20.80
2023-02-11T18:12:32.375Z,21.90
2023-02-11T18:15:36.966Z,21.55
2023-02-11T18:18:42.525Z,23.75
2023-02-11T18:21:50.475Z,23.63
2023-02-11T18:24:55.426Z,22.60
2023-02-11T18:28:00.128Z,21.15
2023-02-11T18:31:06.095Z,21.75
2023-02-11T18:34:11.431Z,23.27
2023-02-11T18:37:16.325Z,21.60
2023-02-11T18:40:20.917Z,20.50
2023-02-11T18:43:25.560Z,20.92
2023-02-11T18:46:30.587Z,20.13
2023-02-11T18:49:36.157Z,22.92
2023-02-11T18:52:40.830Z,19.35
2023-02-11T18:55:47.009Z,21.15
2023-02-11T18:58:51.982Z,20.33
2023-02-11T19:01:56.688Z,22.48
2023-02-11T19:05:01.494Z,20.83
2023-02-11T19:08:06.266Z,21.90
2023-02-11T19:11:11.166Z,23.95
2023-02-11T19:14:24.483Z,23.63
2023-02-11T19:17:28.951Z,23.85
2023-02-11T19:20:33.519Z,23.90
2023-02-11T19:23:38.673Z,24.52
2023-02-11T19:26:43.267Z,23.65
2023-02-11T19:29:47.835Z,26.00
2023-02-11T19:32:53.190Z,25.30
2023-02-11T19:36:09.603Z,27.50
2023-02-11T19:39:14.437Z,29.02
2023-02-11T19:42:18.981Z,28.52
2023-02-11T19:45:23.689Z,28.40
2023-02-11T19:48:28.371Z,25.50
2023-02-11T19:51:35.573Z,26.13
2023-02-11T19:54:40.139Z,27.73
2023-02-11T19:57:45.015Z,26.35
2023-02-11T20:00:49.601Z,26.60
2023-02-11T20:03:55.340Z,25.73
2023-02-11T20:07:00.038Z,24.38
2023-02-11T20:10:05.277Z,26.00
2023-02-11T20:13:10.444Z,25.20
2023-02-11T20:16:21.150Z,25.27
2023-02-11T20:19:25.765Z,25.90
2023-02-11T20:22:30.254Z,23.30
2023-02-11T20:25:38.283Z,24.92
2023-02-11T20:28:43.248Z,26.75
2023-02-11T20:31:49.695Z,28.08
2023-02-11T20:34:54.442Z,22.80
2023-02-11T20:38:00.420Z,26.25
2023-02-11T20:41:13.886Z,26.45
2023-02-11T20:44:18.821Z,26.83
2023-02-11T20:47:23.507Z,26.67
2023-02-11T20:50:28.006Z,25.67
2023-02-11T20:53:35.476Z,25.80
2023-02-11T20:56:39.997Z,25.60
2023-02-11T20:59:44.607Z,26.48
2023-02-11T21:02:52.809Z,24.75
2023-02-11T21:06:00.746Z,24.48
2023-02-11T21:09:08.188Z,25.40
2023-02-11T21:12:13.070Z,26.30
2023-02-11T21:15:17.777Z,26.58
2023-02-11T21:18:23.426Z,25.92
2023-02-11T21:21:27.964Z,24.55
2023-02-11T21:24:32.782Z,25.38
2023-02-11T21:27:37.570Z,25.50
2023-02-11T21:30:42.421Z,26.02
2023-02-11T21:33:48.222Z,26.33
2023-02-11T21:36:52.819Z,25.17
2023-02-11T21:39:57.422Z,24.73
2023-02-11T21:43:01.930Z,27.15
2023-02-11T21:46:13.197Z,26.25
2023-02-11T21:49:19.882Z,23.73
2023-02-11T21:52:24.620Z,25.15
2023-02-11T21:55:29.141Z,23.92
2023-02-11T21:58:34.737Z,24.73
2023-02-11T22:01:39.745Z,23.33
2023-02-11T22:04:44.530Z,23.08
2023-02-11T22:07:49.146Z,23.33
2023-02-11T22:10:53.815Z,24.58
2023-02-11T22:13:59.318Z,27.75
2023-02-11T22:17:04.779Z,37.35
2023-02-11T22:20:10.432Z,26.42
2023-02-11T22:23:14.930Z,27.27
2023-02-11T22:26:22.292Z,27.30
2023-02-11T22:29:26.842Z,24.45
2023-02-11T22:32:31.667Z,27.08
2023-02-11T22:35:36.172Z,24.70
2023-02-11T22:38:40.751Z,24.02
2023-02-11T22:41:46.726Z,22.25
2023-02-11T22:44:51.337Z,22.77
2023-02-11T22:47:55.907Z,21.73
2023-02-11T22:51:08.781Z,23.60
2023-02-11T22:54:16.482Z,22.58
2023-02-11T22:57:21.052Z,25.42
2023-02-11T23:03:53.751Z,25.05
2023-02-11T23:06:58.380Z,23.35
2023-02-11T23:10:02.925Z,23.25
2023-02-11T23:13:07.745Z,24.30
2023-02-11T23:16:15.181Z,22.77
2023-02-11T23:19:19.907Z,24.00
2023-02-11T23:22:24.546Z,25.67
2023-02-11T23:25:29.716Z,24.90
2023-02-11T23:28:34.242Z,22.95
2023-02-11T23:31:40.645Z,25.88
2023-02-11T23:34:45.336Z,25.90
2023-02-11T23:37:50.427Z,26.55
2023-02-11T23:40:55.028Z,24.23
2023-02-11T23:43:59.648Z,25.00
2023-02-11T23:47:04.469Z,24.83
2023-02-11T23:50:10.284Z,27.90
2023-02-11T23:53:15.496Z,27.45
2023-02-11T23:56:25.770Z,24.60
2023-02-11T23:59:30.356Z,22.63
